createdAt,value
2022-12-03T00:00:37.988Z,100937.25
2022-12-03T00:03:04.605Z,100943.13
2022-12-03T00:05:31.404Z,100937.69
2022-12-03T00:07:58.052Z,100927.19
2022-12-03T00:10:24.694Z,100937.28
2022-12-03T00:12:51.209Z,100934.19
2022-12-03T00:15:17.787Z,100924.44
2022-12-03T00:17:44.289Z,100933.09
2022-12-03T00:20:18.710Z,100920.63
2022-12-03T00:22:45.290Z,100927.97
2022-12-03T00:25:11.999Z,100924.56
2022-12-03T00:27:38.544Z,100920.63
2022-12-03T00:30:06.558Z,100917.44
2022-12-03T00:32:33.051Z,100921.41
2022-12-03T00:34:59.572Z,100921.63
2022-12-03T00:37:26.039Z,100920.00
2022-12-03T00:39:52.597Z,100923.53
2022-12-03T00:42:19.079Z,100922.50
2022-12-03T00:44:45.573Z,100919.19
2022-12-03T00:47:12.767Z,100917.38
2022-12-03T00:49:39.376Z,100920.81
2022-12-03T00:52:05.844Z,100918.00
2022-12-03T00:54:32.483Z,100913.22
2022-12-03T00:56:59.094Z,100921.59
2022-12-03T00:59:25.605Z,100915.06
2022-12-03T01:01:52.265Z,100915.72
2022-12-03T01:04:18.833Z,100916.44
2022-12-03T01:06:45.409Z,100916.09
2022-12-03T01:09:11.896Z,100914.50
2022-12-03T01:11:38.397Z,100913.47
2022-12-03T01:14:07.095Z,100904.19
2022-12-03T01:16:34.077Z,100909.13
2022-12-03T01:19:00.792Z,100919.03
2022-12-03T01:21:27.674Z,100913.88
2022-12-03T01:23:54.440Z,100921.59
2022-12-03T01:26:20.990Z,100928.81
2022-12-03T01:28:47.564Z,100923.00
2022-12-03T01:31:32.760Z,100921.34
2022-12-03T01:33:59.930Z,100925.34
2022-12-03T01:36:26.658Z,100935.00
2022-12-03T01:38:53.170Z,100928.81
2022-12-03T01:41:22.314Z,100926.19
2022-12-03T01:43:49.913Z,100926.16
2022-12-03T01:46:21.057Z,100923.78
2022-12-03T01:48:49.989Z,100929.22
2022-12-03T01:51:16.517Z,100923.69
2022-12-03T01:53:44.073Z,100923.00
2022-12-03T01:56:14.367Z,100925.91
2022-12-03T01:58:41.892Z,100925.34
2022-12-03T02:01:17.567Z,100923.13
2022-12-03T02:03:45.369Z,100929.88
2022-12-03T02:06:17.111Z,100919.44
2022-12-03T02:08:44.230Z,100923.78
2022-12-03T02:11:20.740Z,100926.38
2022-12-03T02:13:51.158Z,100921.09
2022-12-03T02:16:17.845Z,100927.56
2022-12-03T02:18:44.638Z,100928.25
2022-12-03T02:21:22.620Z,100925.66
2022-12-03T02:24:31.282Z,100924.97
2022-12-03T02:26:57.741Z,100922.13
2022-12-03T02:29:24.651Z,100926.19
2022-12-03T02:31:51.274Z,100924.94
2022-12-03T02:34:44.687Z,100924.03
2022-12-03T02:37:17.268Z,100926.38
2022-12-03T02:39:49.238Z,100922.94
2022-12-03T02:42:34.748Z,100914.13
2022-12-03T02:45:15.015Z,100914.38
2022-12-03T02:47:45.964Z,100917.72
2022-12-03T02:50:17.493Z,100913.41
2022-12-03T02:52:46.294Z,100916.13
2022-12-03T02:55:15.288Z,100914.84
2022-12-03T02:57:45.811Z,100914.25
2022-12-03T03:00:13.007Z,100918.94
2022-12-03T03:02:40.916Z,100915.38
2022-12-03T03:05:10.456Z,100920.59
2022-12-03T03:07:37.699Z,100917.25
2022-12-03T03:10:06.507Z,100917.47
2022-12-03T03:12:38.856Z,100914.19
2022-12-03T03:15:07.592Z,100915.78
2022-12-03T03:17:35.117Z,100916.34
2022-12-03T03:20:03.016Z,100918.25
2022-12-03T03:22:33.482Z,100921.44
2022-12-03T03:25:00.213Z,100914.84
2022-12-03T03:27:28.153Z,100918.97
2022-12-03T03:29:56.117Z,100919.63
2022-12-03T03:32:22.676Z,100912.00
2022-12-03T03:34:49.236Z,100918.13
2022-12-03T03:37:15.982Z,100918.34
2022-12-03T03:39:42.563Z,100920.63
2022-12-03T03:42:09.517Z,100917.50
2022-12-03T03:44:36.173Z,100916.56
2022-12-03T03:47:02.861Z,100915.72
2022-12-03T03:49:29.456Z,100920.38
2022-12-03T03:51:55.947Z,100911.25
2022-12-03T03:54:23.232Z,100902.88
2022-12-03T03:56:49.957Z,100902.91
2022-12-03T03:59:16.614Z,100907.16
2022-12-03T04:01:45.109Z,100905.97
2022-12-03T04:04:20.473Z,100906.91
2022-12-03T04:06:48.099Z,100906.56
2022-12-03T04:09:14.888Z,100893.53
2022-12-03T04:12:00.606Z,100899.06
2022-12-03T04:14:27.134Z,100894.44
2022-12-03T04:16:53.659Z,100891.66
2022-12-03T04:19:20.164Z,100886.53
2022-12-03T04:22:05.087Z,100885.91
2022-12-03T04:24:31.597Z,100882.78
2022-12-03T04:27:16.371Z,100883.56
2022-12-03T04:29:42.840Z,100883.44
2022-12-03T04:32:27.933Z,100883.22
2022-12-03T04:35:12.983Z,100874.38
2022-12-03T04:37:39.596Z,100879.47
2022-12-03T04:40:26.773Z,100881.09
2022-12-03T04:42:53.252Z,100877.94
2022-12-03T04:45:19.764Z,100873.69
2022-12-03T04:47:46.285Z,100876.25
2022-12-03T04:50:12.807Z,100870.50
2022-12-03T04:52:39.353Z,100869.22
2022-12-03T04:55:06.095Z,100867.84
2022-12-03T04:57:32.760Z,100867.34
2022-12-03T04:59:59.265Z,100866.84
2022-12-03T05:02:25.925Z,100866.50
2022-12-03T05:04:52.906Z,100874.25
2022-12-03T05:07:19.584Z,100876.72
2022-12-03T05:09:46.030Z,100877.50
2022-12-03T05:12:12.470Z,100876.78
2022-12-03T05:14:39.009Z,100879.09
2022-12-03T05:17:05.621Z,100883.44
2022-12-03T05:19:50.571Z,100881.09
2022-12-03T05:22:17.001Z,100881.16
2022-12-03T05:24:43.502Z,100876.09
2022-12-03T05:27:10.052Z,100883.72
2022-12-03T05:29:36.519Z,100888.38
2022-12-03T05:32:03.504Z,100887.84
2022-12-03T05:34:30.009Z,100881.03
2022-12-03T05:36:56.524Z,100883.63
2022-12-03T05:39:23.094Z,100881.31
2022-12-03T05:42:07.906Z,100882.53
2022-12-03T05:44:34.449Z,100883.78
2022-12-03T05:47:00.895Z,100883.28
2022-12-03T05:49:27.439Z,100876.38
2022-12-03T05:51:58.499Z,100875.31
2022-12-03T05:54:25.515Z,100880.72
2022-12-03T05:56:52.029Z,100887.25
2022-12-03T05:59:18.543Z,100884.06
2022-12-03T06:01:45.072Z,100881.94
2022-12-03T06:04:11.759Z,100890.22
2022-12-03T06:06:38.218Z,100884.19
2022-12-03T06:09:04.962Z,100885.13
2022-12-03T06:11:34.058Z,100882.78
2022-12-03T06:14:01.043Z,100882.50
2022-12-03T06:16:27.750Z,100886.28
2022-12-03T06:18:54.417Z,100884.59
2022-12-03T06:21:20.904Z,100882.53
2022-12-03T06:23:47.353Z,100882.22
2022-12-03T06:26:14.531Z,100874.75
2022-12-03T06:28:46.242Z,100871.69
2022-12-03T06:31:13.689Z,100865.53
2022-12-03T06:33:40.150Z,100866.41
2022-12-03T06:36:07.035Z,100869.41
2022-12-03T06:38:33.505Z,100869.97
2022-12-03T06:41:00.001Z,100865.69
2022-12-03T06:43:26.471Z,100869.16
2022-12-03T06:45:52.997Z,100862.34
2022-12-03T06:48:19.547Z,100861.81
2022-12-03T06:50:46.044Z,100865.44
2022-12-03T06:53:12.486Z,100867.31
2022-12-03T06:55:38.981Z,100860.06
2022-12-03T06:58:05.488Z,100855.66
2022-12-03T07:00:32.069Z,100854.84
2022-12-03T07:02:58.637Z,100862.34
2022-12-03T07:05:25.238Z,100858.44
2022-12-03T07:07:55.413Z,100865.59
2022-12-03T07:10:22.320Z,100858.97
2022-12-03T07:12:48.806Z,100858.91
2022-12-03T07:15:15.719Z,100862.44
2022-12-03T07:17:42.225Z,100872.94
2022-12-03T07:20:09.105Z,100870.31
2022-12-03T07:22:35.662Z,100870.97
2022-12-03T07:25:02.318Z,100876.19
2022-12-03T07:27:28.836Z,100868.19
2022-12-03T07:29:55.370Z,100876.19
2022-12-03T07:32:21.943Z,100876.56
2022-12-03T07:34:48.405Z,100879.19
2022-12-03T07:37:18.645Z,100882.09
2022-12-03T07:39:47.993Z,100876.06
2022-12-03T07:42:14.529Z,100876.84
2022-12-03T07:44:41.047Z,100875.28
2022-12-03T07:47:07.599Z,100879.06
2022-12-03T07:49:34.208Z,100874.72
2022-12-03T07:52:00.772Z,100870.69
2022-12-03T07:54:27.268Z,100876.34
2022-12-03T07:56:59.603Z,100870.25
2022-12-03T07:59:28.605Z,100868.69
2022-12-03T08:01:55.153Z,100868.50
2022-12-03T08:04:21.907Z,100869.00
2022-12-03T08:06:48.956Z,100868.38
2022-12-03T08:09:16.437Z,100868.09
2022-12-03T08:11:45.379Z,100875.81
2022-12-03T08:14:14.640Z,100867.50
2022-12-03T08:16:42.640Z,100872.69
2022-12-03T08:19:11.825Z,100867.94
2022-12-03T08:21:39.149Z,100874.38
2022-12-03T08:24:21.509Z,100876.19
2022-12-03T08:26:49.506Z,100879.13
2022-12-03T08:29:18.480Z,100875.69
2022-12-03T08:31:51.900Z,100876.38
2022-12-03T08:34:19.535Z,100879.16
2022-12-03T08:36:47.120Z,100874.88
2022-12-03T08:39:33.459Z,100883.50
2022-12-03T08:42:28.669Z,100886.19
2022-12-03T08:44:55.621Z,100884.00
2022-12-03T08:47:24.474Z,100888.06
2022-12-03T08:49:54.934Z,100882.75
2022-12-03T08:52:23.042Z,100880.59
2022-12-03T08:54:55.594Z,100875.78
2022-12-03T08:57:29.638Z,100877.41
2022-12-03T09:00:09.910Z,100877.78
2022-12-03T09:02:36.429Z,100878.97
2022-12-03T09:05:24.980Z,100875.84
2022-12-03T09:07:51.564Z,100873.25
2022-12-03T09:10:18.057Z,100870.06
2022-12-03T09:12:44.548Z,100861.88
2022-12-03T09:15:11.319Z,100866.72
2022-12-03T09:17:37.992Z,100871.13
2022-12-03T09:20:05.953Z,100871.31
2022-12-03T09:22:32.514Z,100875.88
2022-12-03T09:24:59.054Z,100875.84
2022-12-03T09:27:25.618Z,100871.78
2022-12-03T09:29:52.244Z,100871.19
2022-12-03T09:32:19.128Z,100866.06
2022-12-03T09:34:46.013Z,100870.03
2022-12-03T09:37:12.504Z,100877.09
2022-12-03T09:39:39.074Z,100872.53
2022-12-03T09:42:05.877Z,100866.97
2022-12-03T09:44:34.203Z,100866.03
2022-12-03T09:47:02.061Z,100856.06
2022-12-03T09:49:31.689Z,100853.41
2022-12-03T09:52:00.512Z,100858.78
2022-12-03T09:54:28.942Z,100858.69
2022-12-03T09:56:56.998Z,100852.84
2022-12-03T09:59:33.129Z,100855.47
2022-12-03T10:02:01.137Z,100854.81
2022-12-03T10:04:28.869Z,100850.81
2022-12-03T10:06:57.994Z,100849.13
2022-12-03T10:09:27.138Z,100841.13
2022-12-03T10:11:55.488Z,100837.78
2022-12-03T10:14:22.053Z,100833.63
2022-12-03T10:16:48.657Z,100828.81
2022-12-03T10:19:29.025Z,100826.69
2022-12-03T10:21:55.759Z,100825.44
2022-12-03T10:24:37.905Z,100813.13
2022-12-03T10:27:21.635Z,100816.38
2022-12-03T10:30:02.657Z,100811.22
2022-12-03T10:32:44.933Z,100808.63
2022-12-03T10:35:14.813Z,100813.75
2022-12-03T10:38:03.495Z,100805.13
2022-12-03T10:40:38.495Z,100805.13
2022-12-03T10:43:25.458Z,100803.28
2022-12-03T10:46:16.709Z,100810.53
2022-12-03T10:48:43.669Z,100814.25
2022-12-03T10:51:14.148Z,100800.94
2022-12-03T10:53:41.530Z,100808.41
2022-12-03T10:56:13.620Z,100802.50
2022-12-03T10:58:41.493Z,100806.13
2022-12-03T11:01:25.787Z,100798.31
2022-12-03T11:03:53.838Z,100798.53
2022-12-03T11:06:22.601Z,100800.09
2022-12-03T11:08:57.857Z,100790.31
2022-12-03T11:11:27.029Z,100795.59
2022-12-03T11:13:58.251Z,100791.28
2022-12-03T11:16:39.968Z,100790.13
2022-12-03T11:19:12.303Z,100774.59
2022-12-03T11:22:03.230Z,100775.06
2022-12-03T11:24:30.763Z,100773.22
2022-12-03T11:26:57.196Z,100769.19
2022-12-03T11:29:48.543Z,100771.28
2022-12-03T11:32:42.959Z,100765.69
2022-12-03T11:35:27.496Z,100762.50
2022-12-03T11:37:54.076Z,100767.19
2022-12-03T11:40:20.522Z,100759.28
2022-12-03T11:42:48.310Z,100748.59
2022-12-03T11:45:42.336Z,100760.28
2022-12-03T11:48:14.693Z,100761.47
2022-12-03T11:50:52.463Z,100761.31
2022-12-03T11:53:27.113Z,100755.13
2022-12-03T11:56:08.284Z,100750.94
2022-12-03T11:58:42.319Z,100750.63
2022-12-03T12:01:09.128Z,100740.16
2022-12-03T12:03:42.824Z,100741.88
2022-12-03T12:06:10.677Z,100731.38
2022-12-03T12:08:54.571Z,100730.81
2022-12-03T12:11:26.738Z,100729.84
2022-12-03T12:13:56.205Z,100722.22
2022-12-03T12:16:42.669Z,100722.22
2022-12-03T12:19:31.128Z,100717.38
2022-12-03T12:22:19.378Z,100704.75
2022-12-03T12:24:51.238Z,100711.00
2022-12-03T12:27:47.363Z,100713.59
2022-12-03T12:30:17.010Z,100709.34
2022-12-03T12:32:51.525Z,100702.69
2022-12-03T12:35:22.550Z,100708.94
2022-12-03T12:38:02.209Z,100711.09
2022-12-03T12:40:31.879Z,100703.00
2022-12-03T12:43:03.164Z,100711.22
2022-12-03T12:45:35.831Z,100705.84
2022-12-03T12:48:14.494Z,100700.50
2022-12-03T12:50:46.757Z,100699.78
2022-12-03T12:53:25.034Z,100701.88
2022-12-03T12:55:57.112Z,100710.84
2022-12-03T12:58:24.103Z,100709.41
2022-12-03T13:00:56.960Z,100698.91
2022-12-03T13:03:28.120Z,100710.75
2022-12-03T13:05:56.817Z,100705.72
2022-12-03T13:08:30.568Z,100708.94
2022-12-03T13:10:59.612Z,100706.09
2022-12-03T13:13:30.030Z,100708.84
2022-12-03T13:16:11.946Z,100700.94
2022-12-03T13:18:50.368Z,100702.75
2022-12-03T13:21:38.391Z,100702.00
2022-12-03T13:24:29.814Z,100704.09
2022-12-03T13:26:57.338Z,100696.06
2022-12-03T13:29:25.573Z,100703.53
2022-12-03T13:32:19.597Z,100703.47
2022-12-03T13:34:46.832Z,100701.22
2022-12-03T13:37:18.511Z,100709.88
2022-12-03T13:39:48.466Z,100701.31
2022-12-03T13:42:38.101Z,100697.78
2022-12-03T13:45:13.873Z,100692.19
2022-12-03T13:48:15.245Z,100694.03
2022-12-03T13:50:46.450Z,100691.53
2022-12-03T13:53:25.051Z,100687.34
2022-12-03T13:56:20.968Z,100676.50
2022-12-03T13:58:47.559Z,100675.88
2022-12-03T14:01:14.208Z,100676.41
2022-12-03T14:03:40.848Z,100681.31
2022-12-03T14:06:07.460Z,100674.03
2022-12-03T14:08:41.472Z,100680.69
2022-12-03T14:11:08.135Z,100678.56
2022-12-03T14:13:34.731Z,100669.97
2022-12-03T14:16:01.296Z,100671.56
2022-12-03T14:18:27.903Z,100671.31
2022-12-03T14:20:54.455Z,100673.25
2022-12-03T14:23:36.064Z,100669.72
2022-12-03T14:26:02.564Z,100674.59
2022-12-03T14:28:29.030Z,100674.97
2022-12-03T14:30:55.528Z,100671.38
2022-12-03T14:33:22.072Z,100669.44
2022-12-03T14:35:48.537Z,100670.56
2022-12-03T14:38:15.034Z,100672.84
2022-12-03T14:40:41.608Z,100661.53
2022-12-03T14:43:08.157Z,100661.47
2022-12-03T14:45:34.746Z,100667.69
2022-12-03T14:48:01.233Z,100666.06
2022-12-03T14:50:27.744Z,100663.34
2022-12-03T14:52:54.296Z,100669.44
2022-12-03T14:55:20.802Z,100661.66
2022-12-03T14:57:47.407Z,100658.66
2022-12-03T15:00:14.443Z,100653.44
2022-12-03T15:02:41.068Z,100653.69
2022-12-03T15:05:08.221Z,100650.84
2022-12-03T15:07:35.072Z,100657.09
2022-12-03T15:10:01.637Z,100661.22
2022-12-03T15:12:28.264Z,100665.06
2022-12-03T15:14:54.916Z,100667.22
2022-12-03T15:17:29.490Z,100673.34
2022-12-03T15:19:57.723Z,100675.22
2022-12-03T15:22:24.234Z,100675.31
2022-12-03T15:24:50.748Z,100682.38
2022-12-03T15:27:17.261Z,100685.88
2022-12-03T15:29:43.768Z,100683.56
2022-12-03T15:32:10.248Z,100674.63
2022-12-03T15:34:36.790Z,100684.16
2022-12-03T15:37:03.389Z,100674.72
2022-12-03T15:39:29.907Z,100671.84
2022-12-03T15:41:56.508Z,100675.94
2022-12-03T15:44:23.057Z,100678.91
2022-12-03T15:46:49.572Z,100668.44
2022-12-03T15:49:16.196Z,100670.47
2022-12-03T15:51:42.704Z,100665.31
2022-12-03T15:54:09.255Z,100667.69
2022-12-03T15:56:37.612Z,100665.50
2022-12-03T15:59:04.630Z,100667.03
2022-12-03T16:01:31.220Z,100672.06
2022-12-03T16:03:57.889Z,100671.78
2022-12-03T16:06:24.463Z,100678.38
2022-12-03T16:08:50.933Z,100671.66
2022-12-03T16:11:17.412Z,100674.81
2022-12-03T16:13:43.899Z,100681.81
2022-12-03T16:16:10.451Z,100681.47
2022-12-03T16:18:37.064Z,100686.41
2022-12-03T16:21:03.648Z,100688.81
2022-12-03T16:23:30.327Z,100691.63
2022-12-03T16:25:56.979Z,100688.91
2022-12-03T16:28:23.515Z,100678.84
2022-12-03T16:30:50.119Z,100685.47
2022-12-03T16:33:16.599Z,100674.44
2022-12-03T16:35:43.151Z,100678.03
2022-12-03T16:38:09.676Z,100681.34
2022-12-03T16:40:36.235Z,100680.31
2022-12-03T16:43:04.585Z,100679.88
2022-12-03T16:45:51.541Z,100674.28
2022-12-03T16:48:18.887Z,100671.03
2022-12-03T16:50:45.655Z,100669.03
2022-12-03T16:53:12.691Z,100669.72
2022-12-03T16:55:39.889Z,100667.09
2022-12-03T16:58:06.762Z,100668.28
2022-12-03T17:00:33.357Z,100658.53
2022-12-03T17:02:59.964Z,100667.22
2022-12-03T17:05:26.581Z,100659.44
2022-12-03T17:07:53.430Z,100656.38
2022-12-03T17:10:20.124Z,100655.88
2022-12-03T17:13:10.080Z,100649.69
2022-12-03T17:15:33.437Z,100660.69
2022-12-03T17:18:00.296Z,100660.22
2022-12-03T17:20:26.784Z,100661.28
2022-12-03T17:22:53.286Z,100651.66
2022-12-03T17:25:19.869Z,100650.03
2022-12-03T17:27:46.589Z,100653.25
2022-12-03T17:30:15.514Z,100650.34
2022-12-03T17:32:42.339Z,100653.03
2022-12-03T17:35:10.039Z,100645.13
2022-12-03T17:37:36.967Z,100643.66
2022-12-03T17:40:10.232Z,100639.78
2022-12-03T17:42:36.883Z,100647.00
2022-12-03T17:45:04.154Z,100630.06
2022-12-03T17:47:30.646Z,100632.41
2022-12-03T17:49:57.520Z,100634.59
2022-12-03T17:52:24.386Z,100635.72
2022-12-03T17:57:37.386Z,100631.06
2022-12-03T18:00:04.787Z,100639.53
2022-12-03T18:02:31.276Z,100641.25
2022-12-03T18:04:58.657Z,100643.88
2022-12-03T18:07:25.384Z,100642.34
2022-12-03T18:09:52.190Z,100640.00
2022-12-03T18:12:19.062Z,100641.56
2022-12-03T18:14:45.603Z,100638.47
2022-12-03T18:17:12.119Z,100636.91
2022-12-03T18:19:38.650Z,100635.16
2022-12-03T18:22:08.456Z,100634.78
2022-12-03T18:24:35.086Z,100634.38
2022-12-03T18:27:01.556Z,100634.16
2022-12-03T18:29:28.041Z,100629.50
2022-12-03T18:31:54.570Z,100636.31
2022-12-03T18:34:21.377Z,100633.16
2022-12-03T18:36:49.050Z,100636.91
2022-12-03T18:39:25.459Z,100633.38
2022-12-03T18:41:53.482Z,100632.53
2022-12-03T18:44:20.465Z,100636.72
2022-12-03T18:46:54.929Z,100637.09
2022-12-03T18:49:22.147Z,100630.38
2022-12-03T18:51:49.384Z,100623.19
2022-12-03T18:54:17.884Z,100625.59
2022-12-03T18:56:44.429Z,100622.03
2022-12-03T18:59:12.236Z,100630.59
2022-12-03T19:01:38.965Z,100623.78
2022-12-03T19:04:05.601Z,100620.31
2022-12-03T19:06:32.171Z,100621.13
2022-12-03T19:08:58.726Z,100625.59
2022-12-03T19:11:25.227Z,100614.22
2022-12-03T19:13:52.079Z,100614.91
2022-12-03T19:16:19.158Z,100618.41
2022-12-03T19:18:45.915Z,100616.66
2022-12-03T19:21:14.959Z,100625.75
2022-12-03T19:23:47.266Z,100627.41
2022-12-03T19:26:25.637Z,100616.97
2022-12-03T19:28:53.656Z,100615.78
2022-12-03T19:31:21.438Z,100603.22
2022-12-03T19:33:48.409Z,100613.38
2022-12-03T19:36:24.392Z,100607.91
2022-12-03T19:38:56.595Z,100596.81
2022-12-03T19:41:30.466Z,100607.72
2022-12-03T19:43:58.108Z,100610.81
2022-12-03T19:46:28.718Z,100602.81
2022-12-03T19:48:55.316Z,100604.00
2022-12-03T19:51:36.984Z,100608.84
2022-12-03T19:54:09.952Z,100609.50
2022-12-03T19:56:36.516Z,100600.25
2022-12-03T19:59:03.513Z,100596.31
2022-12-03T20:01:32.573Z,100602.78
2022-12-03T20:04:01.666Z,100596.53
2022-12-03T20:06:33.588Z,100606.00
2022-12-03T20:09:11.900Z,100597.84
2022-12-03T20:11:40.010Z,100600.13
2022-12-03T20:14:10.596Z,100602.44
2022-12-03T20:16:37.182Z,100602.13
2022-12-03T20:19:06.890Z,100597.53
2022-12-03T20:21:35.512Z,100600.38
2022-12-03T20:24:08.127Z,100598.59
2022-12-03T20:26:34.851Z,100600.94
2022-12-03T20:29:01.729Z,100607.03
2022-12-03T20:31:31.302Z,100604.81
2022-12-03T20:34:00.642Z,100603.25
2022-12-03T20:36:30.026Z,100600.63
2022-12-03T20:38:59.236Z,100605.78
2022-12-03T20:41:25.865Z,100603.47
2022-12-03T20:43:54.404Z,100606.66
2022-12-03T20:46:29.478Z,100608.03
2022-12-03T20:48:57.134Z,100600.47
2022-12-03T20:51:27.397Z,100594.63
2022-12-03T20:53:54.149Z,100592.88
2022-12-03T20:56:24.933Z,100588.66
2022-12-03T20:58:53.111Z,100585.56
2022-12-03T21:01:23.746Z,100589.34
2022-12-03T21:03:52.262Z,100590.63
2022-12-03T21:06:20.173Z,100581.78
2022-12-03T21:08:47.022Z,100582.94
2022-12-03T21:11:16.282Z,100590.75
2022-12-03T21:13:43.927Z,100581.91
2022-12-03T21:16:16.413Z,100577.63
2022-12-03T21:18:43.513Z,100579.13
2022-12-03T21:21:15.612Z,100577.06
2022-12-03T21:23:43.468Z,100578.81
2022-12-03T21:26:18.302Z,100577.41
2022-12-03T21:28:46.710Z,100572.66
2022-12-03T21:31:15.498Z,100567.28
2022-12-03T21:33:42.352Z,100568.63
2022-12-03T21:36:09.710Z,100561.88
2022-12-03T21:38:37.555Z,100559.63
2022-12-03T21:41:05.248Z,100562.03
2022-12-03T21:43:32.445Z,100560.47
2022-12-03T21:45:59.160Z,100572.09
2022-12-03T21:48:26.691Z,100577.59
2022-12-03T21:51:00.166Z,100578.84
2022-12-03T21:53:28.113Z,100577.06
2022-12-03T21:55:54.700Z,100578.75
2022-12-03T21:58:21.330Z,100573.66
2022-12-03T22:00:47.883Z,100573.59
2022-12-03T22:03:14.465Z,100575.78
2022-12-03T22:05:41.024Z,100572.38
2022-12-03T22:08:08.068Z,100578.34
2022-12-03T22:10:35.752Z,100571.00
2022-12-03T22:13:02.704Z,100578.59
2022-12-03T22:15:29.229Z,100568.72
2022-12-03T22:17:55.852Z,100565.63
2022-12-03T22:20:23.183Z,100570.88
2022-12-03T22:22:49.756Z,100569.88
2022-12-03T22:25:16.313Z,100565.19
2022-12-03T22:27:42.956Z,100565.94
2022-12-03T22:30:09.719Z,100566.47
2022-12-03T22:32:36.283Z,100564.75
2022-12-03T22:35:03.196Z,100564.41
2022-12-03T22:37:29.946Z,100562.66
2022-12-03T22:39:57.227Z,100567.72
2022-12-03T22:42:24.142Z,100563.25
2022-12-03T22:44:50.673Z,100566.13
2022-12-03T22:47:17.233Z,100564.03
2022-12-03T22:49:43.806Z,100552.34
2022-12-03T22:52:10.355Z,100560.13
2022-12-03T22:54:36.966Z,100554.00
2022-12-03T22:57:03.633Z,100547.25
2022-12-03T22:59:30.496Z,100548.28
2022-12-03T23:01:56.983Z,100550.19
2022-12-03T23:04:23.560Z,100553.63
2022-12-03T23:06:50.230Z,100544.66
2022-12-03T23:09:16.826Z,100540.41
2022-12-03T23:11:48.545Z,100537.81
2022-12-03T23:14:15.127Z,100539.81
2022-12-03T23:16:41.815Z,100533.31
2022-12-03T23:19:08.592Z,100530.81
2022-12-03T23:21:35.516Z,100525.53
2022-12-03T23:24:04.403Z,100520.47
2022-12-03T23:26:34.544Z,100519.53
2022-12-03T23:29:01.046Z,100527.19
2022-12-03T23:31:30.060Z,100521.91
2022-12-03T23:33:58.228Z,100516.84
2022-12-03T23:36:30.407Z,100515.44
2022-12-03T23:38:57.242Z,100512.41
2022-12-03T23:41:24.449Z,100501.94
2022-12-03T23:43:51.526Z,100507.56
2022-12-03T23:46:21.442Z,100508.94
2022-12-03T23:48:54.856Z,100511.44
2022-12-03T23:51:24.268Z,100498.28
2022-12-03T23:53:53.053Z,100506.03
2022-12-03T23:56:26.794Z,100500.03
2022-12-03T23:58:53.356Z,100486.09
